createdAt,value
2024-04-30T00:00:28.881Z,95352.00
2024-04-30T00:01:28.856Z,95353.00
2024-04-30T00:02:28.842Z,95354.00
2024-04-30T00:03:28.880Z,95352.00
2024-04-30T00:04:28.914Z,95353.00
2024-04-30T00:05:28.854Z,95353.00
2024-04-30T00:06:28.811Z,95353.00
2024-04-30T00:07:28.901Z,95353.00
2024-04-30T00:08:28.798Z,95353.00
2024-04-30T00:09:28.799Z,95354.00
2024-04-30T00:10:28.891Z,95355.00
2024-04-30T00:11:28.818Z,95355.00
2024-04-30T00:12:28.801Z,95357.00
2024-04-30T00:13:28.905Z,95356.00
2024-04-30T00:14:28.817Z,95357.00
2024-04-30T00:15:28.767Z,95358.00
2024-04-30T00:16:28.825Z,95360.00
2024-04-30T00:17:28.796Z,95362.00
2024-04-30T00:18:28.759Z,95365.00
2024-04-30T00:19:28.824Z,95367.00
2024-04-30T00:20:28.769Z,95364.00
2024-04-30T00:21:28.735Z,95364.00
2024-04-30T00:22:28.790Z,95366.00
2024-04-30T00:23:28.705Z,95366.00
2024-04-30T00:24:28.693Z,95369.00
2024-04-30T00:25:28.758Z,95366.00
2024-04-30T00:26:28.673Z,95365.00
2024-04-30T00:27:28.668Z,95363.00
2024-04-30T00:28:28.740Z,95364.00
2024-04-30T00:29:28.633Z,95364.00
2024-04-30T00:30:28.627Z,95365.00
2024-04-30T00:31:28.750Z,95364.00
2024-04-30T00:32:28.680Z,95364.00
2024-04-30T00:33:28.585Z,95366.00
2024-04-30T00:34:28.586Z,95366.00
2024-04-30T00:35:28.573Z,95369.00
2024-04-30T00:36:28.544Z,95368.00
2024-04-30T00:37:28.621Z,95368.00
2024-04-30T00:38:28.504Z,95369.00
2024-04-30T00:39:28.500Z,95371.00
2024-04-30T00:40:28.516Z,95372.00
2024-04-30T00:41:28.446Z,95375.00
2024-04-30T00:42:28.423Z,95374.00
2024-04-30T00:43:28.504Z,95379.00
2024-04-30T00:44:28.402Z,95376.00
2024-04-30T00:45:28.380Z,95379.00
2024-04-30T00:46:28.434Z,95373.00
2024-04-30T00:47:28.374Z,95373.00
2024-04-30T00:48:28.433Z,95373.00
2024-04-30T00:49:28.453Z,95375.00
2024-04-30T00:50:28.381Z,95376.00
2024-04-30T00:51:28.399Z,95374.00
2024-04-30T00:52:28.512Z,95374.00
2024-04-30T00:53:28.516Z,95372.00
2024-04-30T00:54:28.577Z,95371.00
2024-04-30T00:55:28.697Z,95367.00
2024-04-30T00:56:28.606Z,95365.00
2024-04-30T00:57:28.662Z,95364.00
2024-04-30T00:58:28.841Z,95367.00
2024-04-30T00:59:28.734Z,95367.00
2024-04-30T01:00:28.861Z,95372.00
2024-04-30T01:01:28.850Z,95370.00
2024-04-30T01:02:28.842Z,95370.00
2024-04-30T01:03:28.919Z,95369.00
2024-04-30T01:04:28.966Z,95366.00
2024-04-30T01:05:28.991Z,95366.00
2024-04-30T01:06:29.039Z,95366.00
2024-04-30T01:07:29.292Z,95366.00
2024-04-30T01:08:29.139Z,95369.00
2024-04-30T01:09:29.178Z,95368.00
2024-04-30T01:10:29.260Z,95372.00
2024-04-30T01:11:29.339Z,95371.00
2024-04-30T01:12:29.387Z,95369.00
2024-04-30T01:13:29.430Z,95370.00
2024-04-30T01:14:29.415Z,95371.00
2024-04-30T01:15:29.460Z,95373.00
2024-04-30T01:16:29.583Z,95371.00
2024-04-30T01:17:29.682Z,95373.00
2024-04-30T01:18:29.613Z,95374.00
2024-04-30T01:19:29.757Z,95375.00
2024-04-30T01:20:29.719Z,95377.00
2024-04-30T01:21:29.794Z,95375.00
2024-04-30T01:22:29.951Z,95375.00
2024-04-30T01:23:29.890Z,95374.00
2024-04-30T01:24:29.961Z,95374.00
2024-04-30T01:25:30.048Z,95375.00
2024-04-30T01:26:30.074Z,95375.00
2024-04-30T01:27:30.184Z,95376.00
2024-04-30T01:28:30.325Z,95375.00
2024-04-30T01:29:30.262Z,95377.00
2024-04-30T01:30:30.439Z,95377.00
2024-04-30T01:31:31.162Z,95379.00
2024-04-30T01:32:30.540Z,95378.00
2024-04-30T01:33:30.560Z,95377.00
2024-04-30T01:34:30.688Z,95373.00
2024-04-30T01:35:30.727Z,95372.00
2024-04-30T01:36:30.683Z,95371.00
2024-04-30T01:37:30.891Z,95371.00
2024-04-30T01:38:30.744Z,95376.00
2024-04-30T01:39:30.754Z,95375.00
2024-04-30T01:40:30.853Z,95373.00
2024-04-30T01:41:30.853Z,95370.00
2024-04-30T01:42:30.911Z,95370.00
2024-04-30T01:43:31.057Z,95369.00
2024-04-30T01:44:30.952Z,95372.00
2024-04-30T01:45:30.936Z,95372.00
2024-04-30T01:46:31.082Z,95374.00
2024-04-30T01:47:31.042Z,95371.00
2024-04-30T01:48:31.268Z,95369.00
2024-04-30T01:49:31.182Z,95369.00
2024-04-30T01:50:31.157Z,95368.00
2024-04-30T01:51:31.195Z,95371.00
2024-04-30T01:52:31.323Z,95372.00
2024-04-30T01:53:31.316Z,95373.00
2024-04-30T01:54:31.394Z,95371.00
2024-04-30T01:55:31.492Z,95372.00
2024-04-30T01:56:31.467Z,95370.00
2024-04-30T01:57:31.523Z,95371.00
2024-04-30T01:58:31.671Z,95373.00
2024-04-30T01:59:31.624Z,95374.00
2024-04-30T02:00:31.683Z,95372.00
2024-04-30T02:01:31.775Z,95372.00
2024-04-30T02:02:31.808Z,95372.00
2024-04-30T02:03:31.880Z,95368.00
2024-04-30T02:04:38.762Z,95368.00
2024-04-30T02:05:31.966Z,95365.00
2024-04-30T02:06:31.900Z,95365.00
2024-04-30T02:07:32.057Z,95362.00
2024-04-30T02:08:31.856Z,95362.00
2024-04-30T02:09:31.859Z,95363.00
2024-04-30T02:10:31.881Z,95361.00
2024-04-30T02:11:31.852Z,95362.00
2024-04-30T02:12:31.832Z,95362.00
2024-04-30T02:13:31.875Z,95363.00
2024-04-30T02:14:31.815Z,95363.00
2024-04-30T02:15:31.807Z,95358.00
2024-04-30T02:16:31.875Z,95359.00
2024-04-30T02:17:31.928Z,95355.00
2024-04-30T02:18:31.806Z,95352.00
2024-04-30T02:19:31.830Z,95349.00
2024-04-30T02:20:31.793Z,95351.00
2024-04-30T02:21:31.805Z,95352.00
2024-04-30T02:22:31.886Z,95357.00
2024-04-30T02:23:31.773Z,95355.00
2024-04-30T02:24:31.756Z,95350.00
2024-04-30T02:25:31.914Z,95345.00
2024-04-30T02:26:31.772Z,95345.00
2024-04-30T02:27:31.772Z,95347.00
2024-04-30T02:28:31.780Z,95347.00
2024-04-30T02:29:31.810Z,95346.00
2024-04-30T02:30:31.846Z,95347.00
2024-04-30T02:31:31.959Z,95347.00
2024-04-30T02:32:31.999Z,95345.00
2024-04-30T02:33:31.994Z,95345.00
2024-04-30T02:34:32.102Z,95341.00
2024-04-30T02:35:32.056Z,95341.00
2024-04-30T02:36:32.126Z,95340.00
2024-04-30T02:37:32.267Z,95340.00
2024-04-30T02:38:32.227Z,95339.00
2024-04-30T02:39:32.275Z,95338.00
2024-04-30T02:40:32.430Z,95339.00
2024-04-30T02:41:32.472Z,95341.00
2024-04-30T02:42:32.471Z,95336.00
2024-04-30T02:43:32.590Z,95335.00
2024-04-30T02:44:32.546Z,95336.00
2024-04-30T02:45:32.600Z,95336.00
2024-04-30T02:46:32.732Z,95334.00
2024-04-30T02:47:32.833Z,95337.00
2024-04-30T02:48:32.778Z,95336.00
2024-04-30T02:49:33.047Z,95338.00
2024-04-30T02:50:32.896Z,95335.00
2024-04-30T02:51:32.938Z,95336.00
2024-04-30T02:52:33.060Z,95332.00
2024-04-30T02:53:33.046Z,95331.00
2024-04-30T02:54:33.114Z,95333.00
2024-04-30T02:55:33.294Z,95332.00
2024-04-30T02:56:33.192Z,95332.00
2024-04-30T02:57:33.193Z,95332.00
2024-04-30T02:58:33.297Z,95332.00
2024-04-30T02:59:33.268Z,95334.00
2024-04-30T03:00:33.340Z,95333.00
2024-04-30T03:01:33.283Z,95332.00
2024-04-30T03:02:33.358Z,95332.00
2024-04-30T03:03:33.405Z,95331.00
2024-04-30T03:04:33.432Z,95335.00
2024-04-30T03:05:33.452Z,95335.00
2024-04-30T03:06:33.491Z,95335.00
2024-04-30T03:07:33.617Z,95333.00
2024-04-30T03:08:33.571Z,95332.00
2024-04-30T03:09:33.633Z,95328.00
2024-04-30T03:10:33.824Z,95331.00
2024-04-30T03:11:33.757Z,95334.00
2024-04-30T03:12:33.772Z,95338.00
2024-04-30T03:13:33.870Z,95337.00
2024-04-30T03:14:33.912Z,95339.00
2024-04-30T03:15:33.937Z,95338.00
2024-04-30T03:16:33.959Z,95337.00
2024-04-30T03:17:34.074Z,95340.00
2024-04-30T03:18:34.070Z,95339.00
2024-04-30T03:19:34.252Z,95338.00
2024-04-30T03:20:34.200Z,95335.00
2024-04-30T03:21:34.265Z,95334.00
2024-04-30T03:22:34.373Z,95336.00
2024-04-30T03:23:34.394Z,95336.00
2024-04-30T03:24:34.455Z,95334.00
2024-04-30T03:25:34.591Z,95333.00
2024-04-30T03:26:34.569Z,95332.00
2024-04-30T03:27:34.615Z,95331.00
2024-04-30T03:28:34.711Z,95331.00
2024-04-30T03:29:34.740Z,95329.00
2024-04-30T03:30:34.766Z,95327.00
2024-04-30T03:31:34.981Z,95328.00
2024-04-30T03:32:34.937Z,95329.00
2024-04-30T03:33:35.050Z,95326.00
2024-04-30T03:34:35.073Z,95325.00
2024-04-30T03:35:35.034Z,95322.00
2024-04-30T03:36:35.111Z,95323.00
2024-04-30T03:37:35.138Z,95322.00
2024-04-30T03:38:35.112Z,95322.00
2024-04-30T03:39:35.159Z,95327.00
2024-04-30T03:40:35.209Z,95330.00
2024-04-30T03:41:35.213Z,95328.00
2024-04-30T03:42:35.251Z,95324.00
2024-04-30T03:43:35.297Z,95323.00
2024-04-30T03:44:35.418Z,95321.00
2024-04-30T03:45:35.389Z,95328.00
2024-04-30T03:46:35.486Z,95332.00
2024-04-30T03:47:35.545Z,95332.00
2024-04-30T03:48:35.517Z,95333.00
2024-04-30T03:49:35.694Z,95334.00
2024-04-30T03:50:35.613Z,95333.00
2024-04-30T03:51:35.648Z,95332.00
2024-04-30T03:52:35.735Z,95336.00
2024-04-30T03:53:35.766Z,95338.00
2024-04-30T03:54:35.799Z,95338.00
2024-04-30T03:55:35.852Z,95338.00
2024-04-30T03:56:35.912Z,95338.00
2024-04-30T03:57:35.984Z,95338.00
2024-04-30T03:58:36.118Z,95341.00
2024-04-30T03:59:36.104Z,95344.00
2024-04-30T04:00:36.168Z,95345.00
2024-04-30T04:01:36.228Z,95347.00
2024-04-30T04:02:36.279Z,95346.00
2024-04-30T04:03:36.317Z,95348.00
2024-04-30T04:04:36.347Z,95346.00
2024-04-30T04:05:36.364Z,95349.00
2024-04-30T04:06:36.453Z,95349.00
2024-04-30T04:07:36.665Z,95348.00
2024-04-30T04:08:36.506Z,95346.00
2024-04-30T04:09:36.571Z,95348.00
2024-04-30T04:10:36.655Z,95351.00
2024-04-30T04:11:36.648Z,95352.00
2024-04-30T04:12:36.653Z,95355.00
2024-04-30T04:13:36.646Z,95355.00
2024-04-30T04:14:36.687Z,95354.00
2024-04-30T04:15:36.735Z,95353.00
2024-04-30T04:16:36.875Z,95354.00
2024-04-30T04:17:36.830Z,95354.00
2024-04-30T04:18:36.896Z,95353.00
2024-04-30T04:19:36.940Z,95353.00
2024-04-30T04:20:36.852Z,95351.00
2024-04-30T04:21:36.883Z,95352.00
2024-04-30T04:22:36.958Z,95352.00
2024-04-30T04:23:36.868Z,95353.00
2024-04-30T04:24:36.942Z,95354.00
2024-04-30T04:25:37.071Z,95352.00
2024-04-30T04:26:36.991Z,95355.00
2024-04-30T04:27:37.034Z,95353.00
2024-04-30T04:28:37.114Z,95352.00
2024-04-30T04:29:37.103Z,95349.00
2024-04-30T04:30:37.159Z,95349.00
2024-04-30T04:31:37.258Z,95352.00
2024-04-30T04:32:37.283Z,95355.00
2024-04-30T04:33:37.175Z,95353.00
2024-04-30T04:34:37.238Z,95351.00
2024-04-30T04:35:37.181Z,95350.00
2024-04-30T04:36:44.365Z,95349.00
2024-04-30T04:37:45.444Z,95348.00
2024-04-30T04:38:45.382Z,95348.00
2024-04-30T04:39:45.384Z,95353.00
2024-04-30T04:40:45.459Z,95355.00
2024-04-30T04:41:45.404Z,95356.00
2024-04-30T04:42:45.403Z,95357.00
2024-04-30T04:43:45.431Z,95354.00
2024-04-30T04:44:45.417Z,95354.00
2024-04-30T04:45:45.437Z,95352.00
2024-04-30T04:46:45.410Z,95351.00
2024-04-30T04:47:45.475Z,95350.00
2024-04-30T04:48:45.428Z,95350.00
2024-04-30T04:49:45.458Z,95353.00
2024-04-30T04:50:45.466Z,95354.00
2024-04-30T04:51:45.483Z,95354.00
2024-04-30T04:52:45.489Z,95356.00
2024-04-30T04:53:45.505Z,95358.00
2024-04-30T04:54:45.505Z,95359.00
2024-04-30T04:55:45.549Z,95359.00
2024-04-30T04:56:45.530Z,95359.00
2024-04-30T04:57:45.548Z,95357.00
2024-04-30T04:58:45.530Z,95358.00
2024-04-30T04:59:45.552Z,95363.00
2024-04-30T05:00:45.673Z,95365.00
2024-04-30T05:01:45.806Z,95363.00
2024-04-30T05:02:45.692Z,95363.00
2024-04-30T05:03:45.733Z,95360.00
2024-04-30T05:04:46.039Z,95361.00
2024-04-30T05:05:45.728Z,95363.00
2024-04-30T05:06:45.802Z,95362.00
2024-04-30T05:07:45.873Z,95363.00
2024-04-30T05:08:45.904Z,95362.00
2024-04-30T05:09:45.886Z,95361.00
2024-04-30T05:10:45.914Z,95359.00
2024-04-30T05:11:45.882Z,95357.00
2024-04-30T05:12:45.926Z,95357.00
2024-04-30T05:13:46.475Z,95358.00
2024-04-30T05:14:46.045Z,95358.00
2024-04-30T05:15:46.099Z,95359.00
2024-04-30T05:16:46.282Z,95359.00
2024-04-30T05:17:46.333Z,95359.00
2024-04-30T05:18:46.242Z,95360.00
2024-04-30T05:19:46.279Z,95360.00
2024-04-30T05:20:46.319Z,95360.00
2024-04-30T05:21:46.356Z,95362.00
2024-04-30T05:22:46.392Z,95362.00
2024-04-30T05:23:46.381Z,95361.00
2024-04-30T05:24:46.437Z,95364.00
2024-04-30T05:25:46.486Z,95363.00
2024-04-30T05:26:46.442Z,95363.00
2024-04-30T05:27:46.454Z,95362.00
2024-04-30T05:28:46.478Z,95359.00
2024-04-30T05:29:46.483Z,95362.00
2024-04-30T05:30:46.556Z,95364.00
2024-04-30T05:31:46.693Z,95362.00
2024-04-30T05:32:46.670Z,95363.00
2024-04-30T05:33:46.707Z,95366.00
2024-04-30T05:34:46.787Z,95367.00
2024-04-30T05:35:46.753Z,95363.00
2024-04-30T05:36:46.792Z,95367.00
2024-04-30T05:37:46.835Z,95366.00
2024-04-30T05:38:46.846Z,95363.00
2024-04-30T05:39:46.899Z,95363.00
2024-04-30T05:40:46.993Z,95363.00
2024-04-30T05:41:47.490Z,95364.00
2024-04-30T05:42:47.078Z,95360.00
2024-04-30T05:43:47.183Z,95358.00
2024-04-30T05:44:47.168Z,95358.00
2024-04-30T05:45:48.067Z,95356.00
2024-04-30T05:46:47.295Z,95355.00
2024-04-30T05:47:47.292Z,95356.00
2024-04-30T05:48:47.320Z,95356.00
2024-04-30T05:49:47.509Z,95353.00
2024-04-30T05:50:47.498Z,95353.00
2024-04-30T05:51:47.473Z,95352.00
2024-04-30T05:52:48.111Z,95351.00
2024-04-30T05:53:47.997Z,95348.00
2024-04-30T05:54:47.696Z,95348.00
2024-04-30T05:55:47.792Z,95351.00
2024-04-30T05:56:47.761Z,95350.00
2024-04-30T05:57:47.823Z,95348.00
2024-04-30T05:58:47.993Z,95348.00
2024-04-30T05:59:47.791Z,95346.00
2024-04-30T06:00:47.842Z,95348.00
2024-04-30T06:01:47.898Z,95348.00
2024-04-30T06:02:47.882Z,95345.00
2024-04-30T06:03:48.179Z,95347.00
2024-04-30T06:04:48.091Z,95345.00
2024-04-30T06:05:48.002Z,95347.00
2024-04-30T06:06:48.016Z,95347.00
2024-04-30T06:07:48.539Z,95349.00
2024-04-30T06:08:48.137Z,95347.00
2024-04-30T06:09:48.192Z,95347.00
2024-04-30T06:10:48.349Z,95346.00
2024-04-30T06:11:48.291Z,95346.00
2024-04-30T06:12:48.338Z,95346.00
2024-04-30T06:13:48.428Z,95346.00
2024-04-30T06:14:48.394Z,95346.00
2024-04-30T06:15:48.440Z,95338.00
2024-04-30T06:16:48.475Z,95341.00
2024-04-30T06:17:48.553Z,95341.00
2024-04-30T06:18:48.595Z,95342.00
2024-04-30T06:19:48.620Z,95339.00
2024-04-30T06:20:48.604Z,95342.00
2024-04-30T06:21:48.650Z,95338.00
2024-04-30T06:22:48.655Z,95337.00
2024-04-30T06:23:48.699Z,95336.00
2024-04-30T06:24:48.714Z,95338.00
2024-04-30T06:25:49.071Z,95331.00
2024-04-30T06:26:48.759Z,95332.00
2024-04-30T06:27:48.787Z,95330.00
2024-04-30T06:28:48.806Z,95328.00
2024-04-30T06:29:48.833Z,95326.00
2024-04-30T06:30:48.845Z,95328.00
2024-04-30T06:31:48.866Z,95329.00
2024-04-30T06:32:49.121Z,95329.00
2024-04-30T06:33:48.920Z,95327.00
2024-04-30T06:34:48.972Z,95329.00
2024-04-30T06:35:48.939Z,95327.00
2024-04-30T06:36:48.917Z,95327.00
2024-04-30T06:37:49.032Z,95324.00
2024-04-30T06:38:48.981Z,95322.00
2024-04-30T06:39:48.950Z,95325.00
2024-04-30T06:40:49.127Z,95323.00
2024-04-30T06:41:48.964Z,95323.00
2024-04-30T06:42:48.975Z,95322.00
2024-04-30T06:43:48.988Z,95320.00
2024-04-30T06:44:49.000Z,95317.00
2024-04-30T06:45:49.007Z,95315.00
2024-04-30T06:46:48.998Z,95314.00
2024-04-30T06:47:49.204Z,95316.00
2024-04-30T06:48:49.151Z,95318.00
2024-04-30T06:49:49.099Z,95314.00
2024-04-30T06:50:49.006Z,95313.00
2024-04-30T06:51:49.052Z,95315.00
2024-04-30T06:52:49.606Z,95309.00
2024-04-30T06:53:49.049Z,95306.00
2024-04-30T06:54:48.982Z,95302.00
2024-04-30T06:55:48.995Z,95301.00
2024-04-30T06:56:48.982Z,95302.00
2024-04-30T06:57:49.016Z,95304.00
2024-04-30T06:58:49.054Z,95304.00
2024-04-30T06:59:49.015Z,95302.00
2024-04-30T07:00:49.057Z,95300.00
2024-04-30T07:01:49.056Z,95300.00
2024-04-30T07:02:49.065Z,95296.00
2024-04-30T07:03:49.514Z,95297.00
2024-04-30T07:04:49.151Z,95297.00
2024-04-30T07:05:49.034Z,95294.00
2024-04-30T07:06:49.045Z,95292.00
2024-04-30T07:07:49.043Z,95289.00
2024-04-30T07:08:49.045Z,95291.00
2024-04-30T07:09:49.049Z,95291.00
2024-04-30T07:10:49.154Z,95291.00
2024-04-30T07:11:49.033Z,95285.00
2024-04-30T07:12:49.038Z,95285.00
2024-04-30T07:13:49.078Z,95283.00
2024-04-30T07:14:49.073Z,95281.00
2024-04-30T07:15:49.120Z,95286.00
2024-04-30T07:16:56.731Z,95286.00
2024-04-30T07:17:49.215Z,95285.00
2024-04-30T07:18:49.144Z,95283.00
2024-04-30T07:19:51.732Z,95282.00
2024-04-30T07:20:49.077Z,95278.00
2024-04-30T07:21:49.051Z,95279.00
2024-04-30T07:22:49.079Z,95279.00
2024-04-30T07:23:49.541Z,95278.00
2024-04-30T07:24:49.033Z,95278.00
2024-04-30T07:25:49.132Z,95278.00
2024-04-30T07:26:49.001Z,95279.00
2024-04-30T07:27:48.986Z,95280.00
2024-04-30T07:28:49.092Z,95278.00
2024-04-30T07:29:48.972Z,95277.00
2024-04-30T07:30:48.952Z,95275.00
2024-04-30T07:31:49.001Z,95272.00
2024-04-30T07:32:49.201Z,95269.00
2024-04-30T07:33:49.858Z,95266.00
2024-04-30T07:34:48.987Z,95263.00
2024-04-30T07:35:48.932Z,95263.00
2024-04-30T07:36:48.884Z,95263.00
2024-04-30T07:37:49.088Z,95265.00
2024-04-30T07:38:49.065Z,95263.00
2024-04-30T07:39:49.108Z,95261.00
2024-04-30T07:40:48.884Z,95260.00
2024-04-30T07:41:48.909Z,95254.00
2024-04-30T07:42:48.815Z,95253.00
2024-04-30T07:43:49.171Z,95252.00
2024-04-30T07:44:48.839Z,95252.00
2024-04-30T07:45:48.881Z,95253.00
2024-04-30T07:46:48.886Z,95252.00
2024-04-30T07:47:51.455Z,95249.00
2024-04-30T07:48:48.924Z,95248.00
2024-04-30T07:49:48.874Z,95245.00
2024-04-30T07:50:48.830Z,95245.00
2024-04-30T07:51:48.848Z,95246.00
2024-04-30T07:52:49.066Z,95244.00
2024-04-30T07:53:48.794Z,95242.00
2024-04-30T07:54:48.791Z,95240.00
2024-04-30T07:56:05.429Z,95237.00
2024-04-30T07:56:48.762Z,95238.00
2024-04-30T07:57:49.200Z,95236.00
2024-04-30T07:58:48.800Z,95234.00
2024-04-30T07:59:48.730Z,95233.00
2024-04-30T08:00:48.752Z,95232.00
2024-04-30T08:01:48.788Z,95231.00
2024-04-30T08:02:49.381Z,95229.00
2024-04-30T08:03:48.866Z,95228.00
2024-04-30T08:04:48.714Z,95223.00
2024-04-30T08:06:47.677Z,95223.00
2024-04-30T08:07:48.674Z,95221.00
2024-04-30T08:08:49.058Z,95221.00
2024-04-30T08:09:48.557Z,95219.00
2024-04-30T08:10:48.737Z,95216.00
2024-04-30T08:11:48.672Z,95214.00
2024-04-30T08:12:48.558Z,95211.00
2024-04-30T08:13:49.206Z,95212.00
2024-04-30T08:14:48.522Z,95210.00
2024-04-30T08:15:48.499Z,95208.00
2024-04-30T08:16:48.637Z,95207.00
2024-04-30T08:17:48.558Z,95205.00
2024-04-30T08:18:48.456Z,95203.00
2024-04-30T08:19:48.479Z,95204.00
2024-04-30T08:20:48.433Z,95204.00
2024-04-30T08:21:48.398Z,95202.00
2024-04-30T08:22:48.463Z,95203.00
2024-04-30T08:23:48.382Z,95203.00
2024-04-30T08:24:49.427Z,95202.00
2024-04-30T08:25:48.360Z,95202.00
2024-04-30T08:26:48.332Z,95201.00
2024-04-30T08:27:48.318Z,95200.00
2024-04-30T08:28:48.307Z,95199.00
2024-04-30T08:29:48.318Z,95195.00
2024-04-30T08:30:48.299Z,95194.00
2024-04-30T08:31:48.337Z,95197.00
2024-04-30T08:32:48.373Z,95196.00
2024-04-30T08:33:48.327Z,95191.00
2024-04-30T08:34:48.257Z,95188.00
2024-04-30T08:35:48.251Z,95190.00
2024-04-30T08:36:48.254Z,95191.00
2024-04-30T08:37:54.652Z,95192.00
2024-04-30T08:38:48.241Z,95190.00
2024-04-30T08:39:48.304Z,95191.00
2024-04-30T08:40:48.266Z,95190.00
2024-04-30T08:41:48.215Z,95187.00
2024-04-30T08:42:48.156Z,95189.00
2024-04-30T08:43:48.255Z,95188.00
2024-04-30T08:44:48.565Z,95187.00
2024-04-30T08:45:48.154Z,95183.00
2024-04-30T08:46:48.166Z,95183.00
2024-04-30T08:47:48.113Z,95180.00
2024-04-30T08:48:48.086Z,95180.00
2024-04-30T08:49:51.903Z,95178.00
2024-04-30T08:50:48.098Z,95176.00
2024-04-30T08:51:48.035Z,95179.00
2024-04-30T08:52:48.060Z,95179.00
2024-04-30T08:53:48.033Z,95177.00
2024-04-30T08:54:48.091Z,95174.00
2024-04-30T08:55:48.048Z,95170.00
2024-04-30T08:56:47.973Z,95171.00
2024-04-30T08:57:47.955Z,95171.00
2024-04-30T08:58:47.978Z,95171.00
2024-04-30T08:59:47.949Z,95172.00
2024-04-30T09:00:47.955Z,95172.00
2024-04-30T09:01:48.008Z,95169.00
2024-04-30T09:02:51.252Z,95167.00
2024-04-30T09:03:47.958Z,95166.00
2024-04-30T09:04:48.039Z,95164.00
2024-04-30T09:05:47.905Z,95159.00
2024-04-30T09:06:47.885Z,95160.00
2024-04-30T09:07:47.915Z,95155.00
2024-04-30T09:08:49.379Z,95156.00
2024-04-30T09:09:48.117Z,95156.00
2024-04-30T09:10:48.156Z,95150.00
2024-04-30T09:11:48.251Z,95146.00
2024-04-30T09:12:48.066Z,95145.00
2024-04-30T09:13:48.169Z,95144.00
2024-04-30T09:14:48.577Z,95142.00
2024-04-30T09:15:48.120Z,95142.00
2024-04-30T09:16:48.221Z,95141.00
2024-04-30T09:17:48.225Z,95142.00
2024-04-30T09:18:48.127Z,95140.00
2024-04-30T09:19:48.183Z,95139.00
2024-04-30T09:20:48.138Z,95136.00
2024-04-30T09:21:48.351Z,95134.00
2024-04-30T09:22:48.241Z,95131.00
2024-04-30T09:23:48.214Z,95133.00
2024-04-30T09:24:48.573Z,95131.00
2024-04-30T09:25:48.292Z,95129.00
2024-04-30T09:26:48.581Z,95124.00
2024-04-30T09:27:48.283Z,95120.00
2024-04-30T09:28:48.414Z,95119.00
2024-04-30T09:29:48.344Z,95119.00
2024-04-30T09:30:48.616Z,95115.00
2024-04-30T09:31:48.506Z,95116.00
2024-04-30T09:32:48.520Z,95114.00
2024-04-30T09:33:48.548Z,95111.00
2024-04-30T09:34:48.622Z,95107.00
2024-04-30T09:35:49.105Z,95108.00
2024-04-30T09:36:48.612Z,95106.00
2024-04-30T09:37:48.704Z,95105.00
2024-04-30T09:38:48.684Z,95105.00
2024-04-30T09:39:49.611Z,95105.00
2024-04-30T09:40:48.702Z,95104.00
2024-04-30T09:41:48.710Z,95102.00
2024-04-30T09:42:48.717Z,95102.00
2024-04-30T09:43:48.891Z,95102.00
2024-04-30T09:44:48.758Z,95103.00
2024-04-30T09:45:48.763Z,95103.00
2024-04-30T09:46:48.858Z,95102.00
2024-04-30T09:47:48.776Z,95103.00
2024-04-30T09:48:48.750Z,95102.00
2024-04-30T09:49:48.988Z,95092.00
2024-04-30T09:50:49.090Z,95090.00
2024-04-30T09:51:48.734Z,95088.00
2024-04-30T09:52:48.766Z,95086.00
2024-04-30T09:53:49.110Z,95084.00
2024-04-30T09:54:48.671Z,95082.00
2024-04-30T09:55:48.746Z,95082.00
2024-04-30T09:56:48.703Z,95080.00
2024-04-30T09:57:48.658Z,95079.00
2024-04-30T09:58:48.702Z,95079.00
2024-04-30T09:59:48.718Z,95077.00
2024-04-30T10:00:48.627Z,95076.00
2024-04-30T10:01:48.693Z,95076.00
2024-04-30T10:02:48.787Z,95073.00
2024-04-30T10:03:48.714Z,95073.00
2024-04-30T10:04:48.858Z,95065.00
2024-04-30T10:05:48.888Z,95063.00
2024-04-30T10:06:52.171Z,95061.00
2024-04-30T10:07:48.867Z,95061.00
2024-04-30T10:08:48.817Z,95055.00
2024-04-30T10:09:49.101Z,95053.00
2024-04-30T10:10:48.886Z,95051.00
2024-04-30T10:11:48.771Z,95050.00
2024-04-30T10:12:48.703Z,95055.00
2024-04-30T10:13:48.716Z,95053.00
2024-04-30T10:14:48.751Z,95048.00
2024-04-30T10:15:48.631Z,95046.00
2024-04-30T10:16:48.690Z,95047.00
2024-04-30T10:17:48.658Z,95047.00
2024-04-30T10:18:48.569Z,95048.00
2024-04-30T10:19:48.585Z,95047.00
2024-04-30T10:20:48.560Z,95045.00
2024-04-30T10:21:48.634Z,95046.00
2024-04-30T10:22:48.628Z,95043.00
2024-04-30T10:23:48.619Z,95045.00
2024-04-30T10:24:48.644Z,95042.00
2024-04-30T10:25:49.698Z,95043.00
2024-04-30T10:26:49.119Z,95041.00
2024-04-30T10:27:48.749Z,95038.00
2024-04-30T10:28:48.865Z,95033.00
2024-04-30T10:29:48.921Z,95038.00
2024-04-30T10:30:48.827Z,95031.00
2024-04-30T10:31:49.588Z,95033.00
2024-04-30T10:32:48.970Z,95031.00
2024-04-30T10:33:49.014Z,95028.00
2024-04-30T10:34:48.996Z,95027.00
2024-04-30T10:35:49.001Z,95021.00
2024-04-30T10:36:49.155Z,95021.00
2024-04-30T10:37:49.083Z,95019.00
2024-04-30T10:38:49.113Z,95016.00
2024-04-30T10:39:49.152Z,95018.00
2024-04-30T10:40:49.232Z,95017.00
2024-04-30T10:41:49.258Z,95023.00
2024-04-30T10:42:49.273Z,95019.00
2024-04-30T10:43:49.324Z,95016.00
2024-04-30T10:44:49.344Z,95013.00
2024-04-30T10:45:49.372Z,95016.00
2024-04-30T10:46:49.459Z,95018.00
2024-04-30T10:47:49.653Z,95016.00
2024-04-30T10:48:49.492Z,95011.00
2024-04-30T10:49:52.767Z,95010.00
2024-04-30T10:50:49.531Z,95011.00
2024-04-30T10:51:49.488Z,95006.00
2024-04-30T10:52:49.454Z,95004.00
2024-04-30T10:53:49.442Z,95005.00
2024-04-30T10:54:49.397Z,95003.00
2024-04-30T10:55:49.430Z,95002.00
2024-04-30T10:56:49.332Z,95003.00
2024-04-30T10:57:49.680Z,94996.00
2024-04-30T10:58:49.306Z,94998.00
2024-04-30T10:59:49.264Z,94991.00
2024-04-30T11:00:49.305Z,94999.00
2024-04-30T11:01:49.237Z,94996.00
2024-04-30T11:02:50.717Z,94991.00
2024-04-30T11:03:49.125Z,94989.00
2024-04-30T11:04:49.131Z,94991.00
2024-04-30T11:05:49.051Z,94991.00
2024-04-30T11:06:49.095Z,94987.00
2024-04-30T11:07:48.998Z,94990.00
2024-04-30T11:08:48.947Z,94989.00
2024-04-30T11:09:48.936Z,94989.00
2024-04-30T11:10:49.117Z,94985.00
2024-04-30T11:11:49.854Z,94985.00
2024-04-30T11:12:49.130Z,94984.00
2024-04-30T11:13:48.981Z,94984.00
2024-04-30T11:14:48.899Z,94979.00
2024-04-30T11:15:56.686Z,94975.00
2024-04-30T11:16:48.967Z,94978.00
2024-04-30T11:17:48.937Z,94981.00
2024-04-30T11:18:48.936Z,94981.00
2024-04-30T11:19:48.945Z,94980.00
2024-04-30T11:20:48.808Z,94977.00
2024-04-30T11:21:48.801Z,94976.00
2024-04-30T11:22:48.854Z,94974.00
2024-04-30T11:23:48.747Z,94965.00
2024-04-30T11:24:48.709Z,94965.00
2024-04-30T11:25:48.746Z,94963.00
2024-04-30T11:26:50.812Z,94966.00
2024-04-30T11:27:48.701Z,94966.00
2024-04-30T11:29:03.670Z,94963.00
2024-04-30T11:29:48.710Z,94966.00
2024-04-30T11:30:48.588Z,94963.00
2024-04-30T11:31:48.550Z,94961.00
2024-04-30T11:32:48.623Z,94960.00
2024-04-30T11:33:48.705Z,94957.00
2024-04-30T11:34:48.504Z,94957.00
2024-04-30T11:35:48.444Z,94954.00
2024-04-30T11:36:48.422Z,94955.00
2024-04-30T11:37:48.438Z,94955.00
2024-04-30T11:38:48.409Z,94956.00
2024-04-30T11:39:48.312Z,94954.00
2024-04-30T11:40:48.324Z,94958.00
2024-04-30T11:41:56.951Z,94955.00
2024-04-30T11:42:48.721Z,94953.00
2024-04-30T11:43:48.642Z,94951.00
2024-04-30T11:44:48.798Z,94945.00
2024-04-30T11:45:48.629Z,94948.00